sensor_id;sensor_type;location;lat;lon;timestamp;pressure;altitude;pressure_sealevel;temperature;humidity
37694;BME280;23531;50.122;8.644;2023-08-07T00:00:25;100125.28;;;15.15;79.36
37694;BME280;23531;50.122;8.644;2023-08-07T00:02:26;100122.19;;;15.23;79.44
37694;BME280;23531;50.122;8.644;2023-08-07T00:04:27;100130.22;;;15.18;79.18
37694;BME280;23531;50.122;8.644;2023-08-07T00:06:30;100125.53;;;15.13;78.97
37694;BME280;23531;50.122;8.644;2023-08-07T00:08:31;100127.69;;;15.11;79.48
37694;BME280;23531;50.122;8.644;2023-08-07T00:10:33;100131.75;;;15.14;79.30
37694;BME280;23531;50.122;8.644;2023-08-07T00:12:34;100123.34;;;15.10;79.62
37694;BME280;23531;50.122;8.644;2023-08-07T00:14:35;100125.78;;;15.12;79.41
37694;BME280;23531;50.122;8.644;2023-08-07T00:16:37;100116.75;;;15.06;79.17
37694;BME280;23531;50.122;8.644;2023-08-07T00:18:38;100128.59;;;15.00;79.36
37694;BME280;23531;50.122;8.644;2023-08-07T00:20:39;100126.28;;;15.09;79.73
37694;BME280;23531;50.122;8.644;2023-08-07T00:22:42;100126.19;;;15.04;80.07
37694;BME280;23531;50.122;8.644;2023-08-07T00:24:43;100126.94;;;14.99;80.24
37694;BME280;23531;50.122;8.644;2023-08-07T00:26:44;100130.38;;;14.95;79.96
37694;BME280;23531;50.122;8.644;2023-08-07T00:28:46;100126.94;;;14.99;80.59
37694;BME280;23531;50.122;8.644;2023-08-07T00:30:46;100131.53;;;14.99;80.65
37694;BME280;23531;50.122;8.644;2023-08-07T00:32:47;100129.47;;;15.06;80.18
37694;BME280;23531;50.122;8.644;2023-08-07T00:34:49;100127.50;;;15.01;80.00
37694;BME280;23531;50.122;8.644;2023-08-07T00:36:49;100127.25;;;15.03;80.01
37694;BME280;23531;50.122;8.644;2023-08-07T00:38:52;100129.97;;;15.03;80.26
37694;BME280;23531;50.122;8.644;2023-08-07T00:40:53;100130.19;;;15.01;79.99
37694;BME280;23531;50.122;8.644;2023-08-07T00:42:54;100132.13;;;15.01;80.13
37694;BME280;23531;50.122;8.644;2023-08-07T00:44:55;100129.13;;;15.02;79.79
37694;BME280;23531;50.122;8.644;2023-08-07T00:46:57;100133.19;;;15.00;79.69
37694;BME280;23531;50.122;8.644;2023-08-07T00:48:58;100137.59;;;15.06;79.36
37694;BME280;23531;50.122;8.644;2023-08-07T00:50:59;100135.97;;;15.05;79.07
37694;BME280;23531;50.122;8.644;2023-08-07T00:53:01;100136.72;;;15.00;79.10
37694;BME280;23531;50.122;8.644;2023-08-07T00:55:04;100135.38;;;15.03;78.73
37694;BME280;23531;50.122;8.644;2023-08-07T00:57:07;100131.03;;;15.02;78.98
37694;BME280;23531;50.122;8.644;2023-08-07T00:59:10;100134.81;;;15.01;78.75
37694;BME280;23531;50.122;8.644;2023-08-07T01:01:12;100137.25;;;15.02;78.95
37694;BME280;23531;50.122;8.644;2023-08-07T01:03:13;100138.00;;;14.98;78.65
37694;BME280;23531;50.122;8.644;2023-08-07T01:05:14;100136.44;;;15.02;77.97
37694;BME280;23531;50.122;8.644;2023-08-07T01:07:15;100129.88;;;14.98;78.22
37694;BME280;23531;50.122;8.644;2023-08-07T01:09:16;100136.44;;;15.02;78.14
37694;BME280;23531;50.122;8.644;2023-08-07T01:11:20;100130.63;;;14.93;78.37
37694;BME280;23531;50.122;8.644;2023-08-07T01:13:24;100133.72;;;15.02;78.26
37694;BME280;23531;50.122;8.644;2023-08-07T01:15:29;100136.44;;;15.02;78.25
37694;BME280;23531;50.122;8.644;2023-08-07T01:17:31;100138.44;;;14.89;78.96
37694;BME280;23531;50.122;8.644;2023-08-07T01:19:34;100143.31;;;14.93;79.46
37694;BME280;23531;50.122;8.644;2023-08-07T01:21:36;100144.63;;;14.90;79.25
37694;BME280;23531;50.122;8.644;2023-08-07T01:23:39;100141.38;;;14.88;78.87
37694;BME280;23531;50.122;8.644;2023-08-07T01:25:40;100141.50;;;14.81;78.75
37694;BME280;23531;50.122;8.644;2023-08-07T01:27:41;100146.94;;;14.81;78.77
37694;BME280;23531;50.122;8.644;2023-08-07T01:29:48;100141.50;;;14.81;78.87
37694;BME280;23531;50.122;8.644;2023-08-07T01:31:51;100143.84;;;14.89;78.74
37694;BME280;23531;50.122;8.644;2023-08-07T01:33:57;100136.44;;;14.85;78.55
37694;BME280;23531;50.122;8.644;2023-08-07T01:35:58;100142.69;;;14.85;78.58
37694;BME280;23531;50.122;8.644;2023-08-07T01:38:03;100138.09;;;14.86;78.44
37694;BME280;23531;50.122;8.644;2023-08-07T01:40:07;100144.81;;;14.83;78.65
37694;BME280;23531;50.122;8.644;2023-08-07T01:42:09;100138.91;;;14.86;78.56
37694;BME280;23531;50.122;8.644;2023-08-07T01:44:11;100136.28;;;14.92;78.48
37694;BME280;23531;50.122;8.644;2023-08-07T01:46:13;100137.25;;;14.85;78.23
37694;BME280;23531;50.122;8.644;2023-08-07T01:48:14;100139.38;;;14.83;78.27
37694;BME280;23531;50.122;8.644;2023-08-07T01:50:15;100142.91;;;14.84;78.02
37694;BME280;23531;50.122;8.644;2023-08-07T01:52:17;100143.91;;;14.95;78.31
37694;BME280;23531;50.122;8.644;2023-08-07T01:54:18;100147.63;;;14.88;77.76
37694;BME280;23531;50.122;8.644;2023-08-07T01:56:20;100145.47;;;14.90;77.61
37694;BME280;23531;50.122;8.644;2023-08-07T01:58:22;100147.84;;;14.87;76.88
37694;BME280;23531;50.122;8.644;2023-08-07T02:00:23;100148.75;;;14.93;77.14
37694;BME280;23531;50.122;8.644;2023-08-07T02:02:24;100141.53;;;14.98;77.16
37694;BME280;23531;50.122;8.644;2023-08-07T02:04:26;100147.03;;;14.86;76.85
37694;BME280;23531;50.122;8.644;2023-08-07T02:06:27;100150.88;;;14.90;76.88
37694;BME280;23531;50.122;8.644;2023-08-07T02:08:28;100158.09;;;14.85;76.89
37694;BME280;23531;50.122;8.644;2023-08-07T02:10:30;100154.47;;;14.79;77.53
37694;BME280;23531;50.122;8.644;2023-08-07T02:12:32;100155.16;;;14.86;76.65
37694;BME280;23531;50.122;8.644;2023-08-07T02:14:34;100157.03;;;14.86;77.01
37694;BME280;23531;50.122;8.644;2023-08-07T02:16:35;100157.75;;;14.81;77.14
37694;BME280;23531;50.122;8.644;2023-08-07T02:18:36;100153.84;;;14.89;77.21
37694;BME280;23531;50.122;8.644;2023-08-07T02:20:37;100157.03;;;14.86;76.71
37694;BME280;23531;50.122;8.644;2023-08-07T02:22:38;100160.97;;;14.78;76.78
37694;BME280;23531;50.122;8.644;2023-08-07T02:24:40;100166.38;;;14.78;77.19
37694;BME280;23531;50.122;8.644;2023-08-07T02:26:41;100166.94;;;14.80;77.02
37694;BME280;23531;50.122;8.644;2023-08-07T02:28:44;100168.59;;;14.81;76.85
37694;BME280;23531;50.122;8.644;2023-08-07T02:30:45;100169.88;;;14.79;77.01
37694;BME280;23531;50.122;8.644;2023-08-07T02:32:48;100162.59;;;14.79;77.22
37694;BME280;23531;50.122;8.644;2023-08-07T02:34:49;100164.97;;;14.76;76.96
37694;BME280;23531;50.122;8.644;2023-08-07T02:36:51;100159.81;;;14.74;76.77
37694;BME280;23531;50.122;8.644;2023-08-07T02:38:51;100166.63;;;14.77;77.09
37694;BME280;23531;50.122;8.644;2023-08-07T02:40:52;100168.94;;;14.85;77.06
37694;BME280;23531;50.122;8.644;2023-08-07T02:42:54;100156.63;;;14.77;76.98
37694;BME280;23531;50.122;8.644;2023-08-07T02:44:56;100160.88;;;14.73;77.12
37694;BME280;23531;50.122;8.644;2023-08-07T02:46:58;100164.41;;;14.74;77.16
37694;BME280;23531;50.122;8.644;2023-08-07T02:48:59;100164.75;;;14.77;77.40
37694;BME280;23531;50.122;8.644;2023-08-07T02:51:00;100167.94;;;14.74;77.03
37694;BME280;23531;50.122;8.644;2023-08-07T02:53:01;100164.16;;;14.75;77.04
37694;BME280;23531;50.122;8.644;2023-08-07T02:55:03;100168.88;;;14.68;77.17
37694;BME280;23531;50.122;8.644;2023-08-07T02:57:03;100163.34;;;14.75;77.92
37694;BME280;23531;50.122;8.644;2023-08-07T02:59:05;100172.22;;;14.87;77.41
37694;BME280;23531;50.122;8.644;2023-08-07T03:01:07;100173.09;;;14.93;77.23
37694;BME280;23531;50.122;8.644;2023-08-07T03:03:08;100175.88;;;14.81;76.64
37694;BME280;23531;50.122;8.644;2023-08-07T03:05:10;100173.19;;;14.81;77.00
37694;BME280;23531;50.122;8.644;2023-08-07T03:07:11;100173.34;;;14.74;77.13
37694;BME280;23531;50.122;8.644;2023-08-07T03:09:12;100169.88;;;14.79;77.26
37694;BME280;23531;50.122;8.644;2023-08-07T03:11:13;100167.34;;;14.72;77.45
37694;BME280;23531;50.122;8.644;2023-08-07T03:13:14;100164.53;;;14.67;77.47
37694;BME280;23531;50.122;8.644;2023-08-07T03:15:15;100161.44;;;14.75;77.80
37694;BME280;23531;50.122;8.644;2023-08-07T03:17:18;100166.88;;;14.75;77.89
37694;BME280;23531;50.122;8.644;2023-08-07T03:19:20;100176.88;;;14.75;77.62
37694;BME280;23531;50.122;8.644;2023-08-07T03:21:22;100174.97;;;14.75;77.69
37694;BME280;23531;50.122;8.644;2023-08-07T03:23:23;100167.44;;;14.77;77.80
37694;BME280;23531;50.122;8.644;2023-08-07T03:25:25;100177.69;;;14.75;77.22
37694;BME280;23531;50.122;8.644;2023-08-07T03:27:26;100170.63;;;14.74;77.30
37694;BME280;23531;50.122;8.644;2023-08-07T03:29:27;100171.69;;;14.73;77.53
37694;BME280;23531;50.122;8.644;2023-08-07T03:31:28;100175.81;;;14.76;77.58
37694;BME280;23531;50.122;8.644;2023-08-07T03:33:30;100174.97;;;14.75;77.32
37694;BME280;23531;50.122;8.644;2023-08-07T03:35:31;100168.41;;;14.71;77.77
37694;BME280;23531;50.122;8.644;2023-08-07T03:37:33;100171.94;;;14.72;77.86
37694;BME280;23531;50.122;8.644;2023-08-07T03:39:34;100178.66;;;14.69;77.74
37694;BME280;23531;50.122;8.644;2023-08-07T03:41:35;100174.28;;;14.68;78.04
37694;BME280;23531;50.122;8.644;2023-08-07T03:43:36;100178.47;;;14.59;77.62
37694;BME280;23531;50.122;8.644;2023-08-07T03:45:38;100174.50;;;14.50;78.76
37694;BME280;23531;50.122;8.644;2023-08-07T03:47:39;100183.09;;;14.47;78.91
37694;BME280;23531;50.122;8.644;2023-08-07T03:49:42;100172.28;;;14.47;79.21
37694;BME280;23531;50.122;8.644;2023-08-07T03:51:43;100176.75;;;14.53;79.13
37694;BME280;23531;50.122;8.644;2023-08-07T03:53:44;100183.22;;;14.52;78.62
37694;BME280;23531;50.122;8.644;2023-08-07T03:55:49;100170.28;;;14.54;78.40
37694;BME280;23531;50.122;8.644;2023-08-07T03:57:50;100170.81;;;14.56;78.58
37694;BME280;23531;50.122;8.644;2023-08-07T03:59:51;100171.75;;;14.62;78.47
37694;BME280;23531;50.122;8.644;2023-08-07T04:01:54;100171.03;;;14.66;77.94
37694;BME280;23531;50.122;8.644;2023-08-07T04:03:55;100163.41;;;14.63;77.47
37694;BME280;23531;50.122;8.644;2023-08-07T04:05:57;100171.03;;;14.66;76.98
37694;BME280;23531;50.122;8.644;2023-08-07T04:08:00;100167.63;;;14.59;77.49
37694;BME280;23531;50.122;8.644;2023-08-07T04:10:01;100166.00;;;14.58;77.33
37694;BME280;23531;50.122;8.644;2023-08-07T04:12:03;100162.16;;;14.54;77.35
37694;BME280;23531;50.122;8.644;2023-08-07T04:14:04;100169.69;;;14.52;77.44
37694;BME280;23531;50.122;8.644;2023-08-07T04:16:05;100166.50;;;14.55;77.33
37694;BME280;23531;50.122;8.644;2023-08-07T04:18:06;100170.50;;;14.52;77.17
37694;BME280;23531;50.122;8.644;2023-08-07T04:20:08;100167.88;;;14.58;77.14
37694;BME280;23531;50.122;8.644;2023-08-07T04:22:11;100167.50;;;14.66;76.77
37694;BME280;23531;50.122;8.644;2023-08-07T04:24:12;100173.16;;;14.64;76.88
37694;BME280;23531;50.122;8.644;2023-08-07T04:26:14;100168.34;;;14.66;76.88
37694;BME280;23531;50.122;8.644;2023-08-07T04:28:15;100173.69;;;14.78;76.59
37694;BME280;23531;50.122;8.644;2023-08-07T04:30:17;100181.53;;;14.79;76.19
37694;BME280;23531;50.122;8.644;2023-08-07T04:32:18;100182.53;;;14.73;76.10
37694;BME280;23531;50.122;8.644;2023-08-07T04:34:19;100186.41;;;14.77;76.66
37694;BME280;23531;50.122;8.644;2023-08-07T04:36:20;100191.47;;;14.74;76.37
37694;BME280;23531;50.122;8.644;2023-08-07T04:38:23;100188.03;;;14.78;75.96
37694;BME280;23531;50.122;8.644;2023-08-07T04:40:25;100197.13;;;14.72;75.62
37694;BME280;23531;50.122;8.644;2023-08-07T04:42:26;100189.81;;;14.73;75.75
37694;BME280;23531;50.122;8.644;2023-08-07T04:44:28;100191.47;;;14.74;75.93
37694;BME280;23531;50.122;8.644;2023-08-07T04:46:30;100196.72;;;14.80;75.86
37694;BME280;23531;50.122;8.644;2023-08-07T04:48:31;100196.22;;;14.83;75.61
37694;BME280;23531;50.122;8.644;2023-08-07T04:50:33;100198.28;;;14.76;75.44
37694;BME280;23531;50.122;8.644;2023-08-07T04:52:34;100203.69;;;14.76;75.21
37694;BME280;23531;50.122;8.644;2023-08-07T04:54:36;100211.22;;;14.74;75.36
37694;BME280;23531;50.122;8.644;2023-08-07T04:56:37;100209.78;;;14.83;75.49
37694;BME280;23531;50.122;8.644;2023-08-07T04:58:38;100208.13;;;14.82;75.87
37694;BME280;23531;50.122;8.644;2023-08-07T05:00:39;100211.81;;;14.76;75.45
37694;BME280;23531;50.122;8.644;2023-08-07T05:02:41;100211.72;;;14.71;75.42
37694;BME280;23531;50.122;8.644;2023-08-07T05:04:42;100207.69;;;14.74;75.92
37694;BME280;23531;50.122;8.644;2023-08-07T05:06:43;100213.34;;;14.72;75.46
37694;BME280;23531;50.122;8.644;2023-08-07T05:08:45;100220.41;;;14.73;75.67
37694;BME280;23531;50.122;8.644;2023-08-07T05:10:47;100217.31;;;14.81;75.76
37694;BME280;23531;50.122;8.644;2023-08-07T05:12:49;100218.94;;;14.82;75.45
37694;BME280;23531;50.122;8.644;2023-08-07T05:14:55;100226.25;;;14.82;74.77
37694;BME280;23531;50.122;8.644;2023-08-07T05:16:56;100231.66;;;14.82;75.09
37694;BME280;23531;50.122;8.644;2023-08-07T05:18:57;100229.34;;;14.74;75.17
37694;BME280;23531;50.122;8.644;2023-08-07T05:20:58;100226.41;;;14.75;75.03
37694;BME280;23531;50.122;8.644;2023-08-07T05:23:00;100232.53;;;14.71;74.70
37694;BME280;23531;50.122;8.644;2023-08-07T05:25:01;100236.53;;;14.68;75.23
37694;BME280;23531;50.122;8.644;2023-08-07T05:27:04;100231.59;;;14.77;75.36
37694;BME280;23531;50.122;8.644;2023-08-07T05:29:05;100232.50;;;14.82;75.41
37694;BME280;23531;50.122;8.644;2023-08-07T05:31:07;100231.44;;;14.83;74.72
37694;BME280;23531;50.122;8.644;2023-08-07T05:33:08;100247.66;;;14.83;74.36
37694;BME280;23531;50.122;8.644;2023-08-07T05:35:09;100235.78;;;14.84;74.48
37694;BME280;23531;50.122;8.644;2023-08-07T05:37:11;100241.31;;;14.89;74.66
37694;BME280;23531;50.122;8.644;2023-08-07T05:39:12;100247.91;;;14.82;74.44
37694;BME280;23531;50.122;8.644;2023-08-07T05:41:13;100246.84;;;14.83;74.46
37694;BME280;23531;50.122;8.644;2023-08-07T05:43:16;100244.97;;;14.83;74.58
37694;BME280;23531;50.122;8.644;2023-08-07T05:45:18;100230.47;;;14.89;74.23
37694;BME280;23531;50.122;8.644;2023-08-07T05:47:19;100245.53;;;14.85;74.26
37694;BME280;23531;50.122;8.644;2023-08-07T05:49:20;100238.38;;;14.79;74.55
37694;BME280;23531;50.122;8.644;2023-08-07T05:51:21;100248.84;;;14.87;74.53
37694;BME280;23531;50.122;8.644;2023-08-07T05:53:23;100249.41;;;14.89;74.11
37694;BME280;23531;50.122;8.644;2023-08-07T05:55:24;100252.84;;;14.85;74.49
37694;BME280;23531;50.122;8.644;2023-08-07T05:57:25;100245.38;;;14.92;74.37
37694;BME280;23531;50.122;8.644;2023-08-07T05:59:28;100247.84;;;14.94;74.56
37694;BME280;23531;50.122;8.644;2023-08-07T06:01:29;100251.50;;;14.99;74.30
37694;BME280;23531;50.122;8.644;2023-08-07T06:03:31;100248.13;;;14.80;75.10
37694;BME280;23531;50.122;8.644;2023-08-07T06:05:33;100256.84;;;14.82;74.93
37694;BME280;23531;50.122;8.644;2023-08-07T06:07:34;100259.13;;;14.74;75.61
37694;BME280;23531;50.122;8.644;2023-08-07T06:09:36;100259.78;;;14.81;77.02
37694;BME280;23531;50.122;8.644;2023-08-07T06:11:37;100255.47;;;14.68;77.17
37694;BME280;23531;50.122;8.644;2023-08-07T06:13:39;100264.72;;;14.56;77.88
37694;BME280;23531;50.122;8.644;2023-08-07T06:15:42;100264.56;;;14.62;78.16
37694;BME280;23531;50.122;8.644;2023-08-07T06:17:43;100263.75;;;14.62;78.13
37694;BME280;23531;50.122;8.644;2023-08-07T06:19:44;100256.00;;;14.65;78.05
37694;BME280;23531;50.122;8.644;2023-08-07T06:21:46;100259.00;;;14.69;77.78
37694;BME280;23531;50.122;8.644;2023-08-07T06:23:47;100271.72;;;14.68;77.93
37694;BME280;23531;50.122;8.644;2023-08-07T06:25:48;100267.63;;;14.66;77.62
37694;BME280;23531;50.122;8.644;2023-08-07T06:27:50;100274.22;;;14.58;77.51
37694;BME280;23531;50.122;8.644;2023-08-07T06:29:51;100273.88;;;14.66;77.74
37694;BME280;23531;50.122;8.644;2023-08-07T06:31:54;100279.28;;;14.66;77.15
37694;BME280;23531;50.122;8.644;2023-08-07T06:33:55;100275.13;;;14.75;77.08
37694;BME280;23531;50.122;8.644;2023-08-07T06:35:56;100284.06;;;14.76;76.79
37694;BME280;23531;50.122;8.644;2023-08-07T06:37:58;100280.06;;;14.78;76.75
37694;BME280;23531;50.122;8.644;2023-08-07T06:39:59;100282.78;;;14.78;76.79
37694;BME280;23531;50.122;8.644;2023-08-07T06:42:01;100286.63;;;14.82;76.48
37694;BME280;23531;50.122;8.644;2023-08-07T06:44:02;100289.81;;;14.79;75.65
37694;BME280;23531;50.122;8.644;2023-08-07T06:46:04;100292.91;;;14.71;76.32
37694;BME280;23531;50.122;8.644;2023-08-07T06:48:06;100290.78;;;14.73;76.03
37694;BME280;23531;50.122;8.644;2023-08-07T06:50:08;100295.72;;;14.76;76.36
37694;BME280;23531;50.122;8.644;2023-08-07T06:52:10;100300.63;;;14.79;75.97
37694;BME280;23531;50.122;8.644;2023-08-07T06:54:11;100301.44;;;14.80;75.67
37694;BME280;23531;50.122;8.644;2023-08-07T06:56:11;100303.84;;;14.76;75.54
37694;BME280;23531;50.122;8.644;2023-08-07T06:58:13;100307.13;;;14.78;75.91
37694;BME280;23531;50.122;8.644;2023-08-07T07:00:14;100309.84;;;14.78;75.69
37694;BME280;23531;50.122;8.644;2023-08-07T07:02:16;100310.31;;;14.75;75.56
37694;BME280;23531;50.122;8.644;2023-08-07T07:04:18;100321.22;;;14.80;75.71
37694;BME280;23531;50.122;8.644;2023-08-07T07:06:19;100324.75;;;14.81;75.62
37694;BME280;23531;50.122;8.644;2023-08-07T07:08:21;100320.66;;;14.78;75.44
37694;BME280;23531;50.122;8.644;2023-08-07T07:10:23;100325.50;;;14.76;75.83
37694;BME280;23531;50.122;8.644;2023-08-07T07:12:24;100325.34;;;14.83;76.00
37694;BME280;23531;50.122;8.644;2023-08-07T07:14:25;100329.69;;;14.84;75.29
37694;BME280;23531;50.122;8.644;2023-08-07T07:16:27;100332.06;;;14.80;74.79
37694;BME280;23531;50.122;8.644;2023-08-07T07:18:28;100329.94;;;14.82;74.64
37694;BME280;23531;50.122;8.644;2023-08-07T07:20:31;100343.34;;;14.89;74.55
37694;BME280;23531;50.122;8.644;2023-08-07T07:22:32;100329.47;;;14.85;74.49
37694;BME280;23531;50.122;8.644;2023-08-07T07:24:33;100344.53;;;14.81;74.75
37694;BME280;23531;50.122;8.644;2023-08-07T07:26:35;100349.72;;;14.83;74.41
37694;BME280;23531;50.122;8.644;2023-08-07T07:28:36;100340.28;;;14.85;73.81
37694;BME280;23531;50.122;8.644;2023-08-07T07:30:38;100354.06;;;14.84;73.88
37694;BME280;23531;50.122;8.644;2023-08-07T07:32:40;100349.00;;;14.87;74.15
37694;BME280;23531;50.122;8.644;2023-08-07T07:34:41;100348.50;;;14.90;73.52
37694;BME280;23531;50.122;8.644;2023-08-07T07:36:43;100355.31;;;14.93;73.42
37694;BME280;23531;50.122;8.644;2023-08-07T07:38:45;100356.84;;;15.01;74.06
37694;BME280;23531;50.122;8.644;2023-08-07T07:40:47;100357.91;;;15.00;73.31
37694;BME280;23531;50.122;8.644;2023-08-07T07:42:48;100358.63;;;14.95;73.04
37694;BME280;23531;50.122;8.644;2023-08-07T07:44:49;100366.59;;;15.02;72.97
37694;BME280;23531;50.122;8.644;2023-08-07T07:46:51;100368.25;;;15.03;72.36
37694;BME280;23531;50.122;8.644;2023-08-07T07:48:52;100363.41;;;15.05;72.35
37694;BME280;23531;50.122;8.644;2023-08-07T07:50:57;100366.34;;;15.03;72.42
37694;BME280;23531;50.122;8.644;2023-08-07T07:53:00;100367.19;;;15.04;72.52
37694;BME280;23531;50.122;8.644;2023-08-07T07:55:01;100381.53;;;15.04;72.81
37694;BME280;23531;50.122;8.644;2023-08-07T07:57:03;100380.94;;;15.02;72.57
37694;BME280;23531;50.122;8.644;2023-08-07T07:59:04;100378.59;;;15.06;72.11
37694;BME280;23531;50.122;8.644;2023-08-07T08:01:05;100381.31;;;15.06;72.25
37694;BME280;23531;50.122;8.644;2023-08-07T08:03:07;100387.91;;;15.10;72.50
37694;BME280;23531;50.122;8.644;2023-08-07T08:05:08;100388.81;;;15.15;71.94
37694;BME280;23531;50.122;8.644;2023-08-07T08:07:10;100386.06;;;15.27;72.20
37694;BME280;23531;50.122;8.644;2023-08-07T08:09:13;100383.50;;;15.20;71.82
37694;BME280;23531;50.122;8.644;2023-08-07T08:11:15;100390.34;;;15.23;71.47
37694;BME280;23531;50.122;8.644;2023-08-07T08:13:16;100396.81;;;15.22;71.13
37694;BME280;23531;50.122;8.644;2023-08-07T08:15:18;100397.13;;;15.25;70.78
37694;BME280;23531;50.122;8.644;2023-08-07T08:17:19;100393.13;;;15.28;70.55
37694;BME280;23531;50.122;8.644;2023-08-07T08:19:19;100402.78;;;15.24;70.89
37694;BME280;23531;50.122;8.644;2023-08-07T08:21:21;100405.03;;;15.27;70.31
37694;BME280;23531;50.122;8.644;2023-08-07T08:23:22;100396.19;;;15.32;70.86
37694;BME280;23531;50.122;8.644;2023-08-07T08:25:25;100401.72;;;15.25;70.38
37694;BME280;23531;50.122;8.644;2023-08-07T08:27:26;100396.50;;;15.35;70.82
37694;BME280;23531;50.122;8.644;2023-08-07T08:29:27;100388.06;;;15.60;72.41
37694;BME280;23531;50.122;8.644;2023-08-07T08:31:29;100400.47;;;15.73;71.58
37694;BME280;23531;50.122;8.644;2023-08-07T08:33:30;100408.47;;;15.79;71.63
37694;BME280;23531;50.122;8.644;2023-08-07T08:35:31;100405.25;;;15.82;71.58
37694;BME280;23531;50.122;8.644;2023-08-07T08:37:32;100398.34;;;15.75;71.54
37694;BME280;23531;50.122;8.644;2023-08-07T08:39:34;100405.91;;;15.73;70.84
37694;BME280;23531;50.122;8.644;2023-08-07T08:41:36;100407.25;;;15.87;71.50
37694;BME280;23531;50.122;8.644;2023-08-07T08:43:38;100403.22;;;16.06;71.86
37694;BME280;23531;50.122;8.644;2023-08-07T08:45:41;100408.91;;;15.88;71.09
37694;BME280;23531;50.122;8.644;2023-08-07T08:47:43;100410.31;;;15.90;71.31
37694;BME280;23531;50.122;8.644;2023-08-07T08:49:46;100414.16;;;15.94;71.42
37694;BME280;23531;50.122;8.644;2023-08-07T08:51:48;100416.97;;;16.00;71.50
37694;BME280;23531;50.122;8.644;2023-08-07T08:53:51;100409.78;;;15.93;71.27
37694;BME280;23531;50.122;8.644;2023-08-07T08:55:53;100425.56;;;15.80;71.51
37694;BME280;23531;50.122;8.644;2023-08-07T08:57:56;100420.06;;;15.91;71.97
37694;BME280;23531;50.122;8.644;2023-08-07T09:00:00;100429.91;;;15.81;71.66
37694;BME280;23531;50.122;8.644;2023-08-07T09:02:04;100423.75;;;15.85;72.23
37694;BME280;23531;50.122;8.644;2023-08-07T09:04:06;100429.59;;;15.94;72.53
37694;BME280;23531;50.122;8.644;2023-08-07T09:06:07;100419.56;;;15.78;72.03
37694;BME280;23531;50.122;8.644;2023-08-07T09:08:09;100427.41;;;15.91;72.80
37694;BME280;23531;50.122;8.644;2023-08-07T09:10:11;100431.72;;;15.92;72.95
37694;BME280;23531;50.122;8.644;2023-08-07T09:12:14;100429.19;;;15.85;72.63
37694;BME280;23531;50.122;8.644;2023-08-07T09:14:20;100433.44;;;15.81;73.29
37694;BME280;23531;50.122;8.644;2023-08-07T09:16:23;100424.81;;;15.84;73.67
37694;BME280;23531;50.122;8.644;2023-08-07T09:18:25;100447.63;;;16.00;73.40
37694;BME280;23531;50.122;8.644;2023-08-07T09:20:26;100433.94;;;15.95;73.52
37694;BME280;23531;50.122;8.644;2023-08-07T09:22:28;100447.31;;;16.13;73.81
37694;BME280;23531;50.122;8.644;2023-08-07T09:24:29;100444.50;;;16.08;73.29
37694;BME280;23531;50.122;8.644;2023-08-07T09:26:31;100449.69;;;16.10;73.31
37694;BME280;23531;50.122;8.644;2023-08-07T09:28:33;100446.56;;;16.01;73.15
37694;BME280;23531;50.122;8.644;2023-08-07T09:30:35;100443.06;;;15.89;72.76
37694;BME280;23531;50.122;8.644;2023-08-07T09:32:37;100444.81;;;15.95;73.12
37694;BME280;23531;50.122;8.644;2023-08-07T09:34:38;100445.78;;;15.89;72.21
37694;BME280;23531;50.122;8.644;2023-08-07T09:36:39;100453.09;;;16.05;73.33
37694;BME280;23531;50.122;8.644;2023-08-07T09:38:40;100462.41;;;16.09;72.53
37694;BME280;23531;50.122;8.644;2023-08-07T09:40:41;100463.66;;;16.02;72.52
37694;BME280;23531;50.122;8.644;2023-08-07T09:42:43;100462.91;;;16.06;72.55
37694;BME280;23531;50.122;8.644;2023-08-07T09:44:44;100466.78;;;16.10;72.72
37694;BME280;23531;50.122;8.644;2023-08-07T09:46:46;100477.88;;;16.09;72.35
37694;BME280;23531;50.122;8.644;2023-08-07T09:48:47;100469.13;;;16.07;72.42
37694;BME280;23531;50.122;8.644;2023-08-07T09:50:48;100469.72;;;16.09;72.57
37694;BME280;23531;50.122;8.644;2023-08-07T09:52:50;100475.03;;;16.04;72.50
37694;BME280;23531;50.122;8.644;2023-08-07T09:54:54;100478.22;;;16.12;73.09
37694;BME280;23531;50.122;8.644;2023-08-07T09:56:58;100486.25;;;16.07;72.93
37694;BME280;23531;50.122;8.644;2023-08-07T09:58:59;100477.22;;;16.02;72.52
37694;BME280;23531;50.122;8.644;2023-08-07T10:01:02;100482.34;;;16.03;72.58
37694;BME280;23531;50.122;8.644;2023-08-07T10:03:05;100478.09;;;16.07;73.12
37694;BME280;23531;50.122;8.644;2023-08-07T10:05:07;100481.97;;;16.11;72.67
37694;BME280;23531;50.122;8.644;2023-08-07T10:07:08;100486.13;;;15.85;71.93
37694;BME280;23531;50.122;8.644;2023-08-07T10:09:12;100485.97;;;15.64;71.83
37694;BME280;23531;50.122;8.644;2023-08-07T10:11:13;100492.00;;;15.54;73.04
37694;BME280;23531;50.122;8.644;2023-08-07T10:13:15;100497.06;;;15.50;73.22
37694;BME280;23531;50.122;8.644;2023-08-07T10:15:16;100504.97;;;15.52;73.72
37694;BME280;23531;50.122;8.644;2023-08-07T10:17:18;100493.06;;;15.53;74.01
37694;BME280;23531;50.122;8.644;2023-08-07T10:19:22;100503.78;;;15.59;74.19
37694;BME280;23531;50.122;8.644;2023-08-07T10:21:23;100498.72;;;15.51;73.74
37694;BME280;23531;50.122;8.644;2023-08-07T10:23:25;100511.00;;;15.42;74.07
37694;BME280;23531;50.122;8.644;2023-08-07T10:25:25;100506.53;;;15.36;74.24
37694;BME280;23531;50.122;8.644;2023-08-07T10:27:29;100508.06;;;15.44;74.27
37694;BME280;23531;50.122;8.644;2023-08-07T10:29:30;100507.28;;;15.20;74.26
37694;BME280;23531;50.122;8.644;2023-08-07T10:31:33;100501.38;;;15.23;75.19
37694;BME280;23531;50.122;8.644;2023-08-07T10:33:35;100504.78;;;15.30;75.12
37694;BME280;23531;50.122;8.644;2023-08-07T10:35:37;100505.72;;;15.24;74.87